Ellsworth, MI (49729)

4:21 AM EDT on August 30, 2015 (GMT -0400)
2.1 MI NNW of East Jordan(West Field) | | Change Station
CLOSE
Current Station
Personal Weather Station
Location: East Jordan, MI
Elevation: 640 ft
Nearby Weather Stations

Elev 640 ft 45.19 °N, 85.15 °W | Updated 4 seconds ago

Partly Cloudy
Partly Cloudy
58.9 °F
Feels Like 58.9 °F
N
0.0
Wind Variable Wind from ESE
Gusts 0.0 mph

Today
High -- | Low -- °F
--% Chance of Precip.
Yesterday
High -- | Low -- °F
Precip. -- in
6:59 AM 8:22 PM
Full, 100% visible
Pressure 30.05 in
Visibility 0.2 miles
Clouds Overcast 300 ft
Dew Point 58 °F
Humidity 98%
Rainfall 0.00 in
Snow Depth Not available.
UV 0 out of 12
Pollen 9.00 out of 12
Air Quality Not available.
Flu Activity Not available.
METAR KACB 300814Z AUTO 00000KT 1/4SM FG OVC003 13/12 A3005 RMK AO2 T01260120
Pressure 30.05 in
Visibility 0.2 miles
Clouds Overcast 300 ft
Dew Point 58 °F
Humidity 98%
Rainfall 0.00 in
Snow Depth Not available.
UV 0 out of 12
Pollen 9.00 out of 12
Air Quality Not available.
Flu Activity Not available.
METAR KACB 300814Z AUTO 00000KT 1/4SM FG OVC003 13/12 A3005 RMK AO2 T01260120
Nowcast | as of 4:00 am EDT on August 30, 2015

At 5 am...partly cloudy. Areas of fog. Temperature 56. Light winds. At 7 am...partly cloudy. Areas of fog. Temperature 57. Light winds. At 9 am...partly cloudy. Temperature 60. Light winds. At 11 am...partly cloudy. Temperature 67. Light winds.

×

10-Day Weather Forecast

×

Almanac

Astronomy

Aug. 30, 2015 Rise Set
Actual Time
Civil Twilight
Nautical Twilight
Astronomical Twilight
Moon
Length of Visible Light
Length of Day
Tomorrow will be .
, % of the Moon is Illuminated

Today's Extremes

State Highs State Lows

Community

WunderPhotos

Upload Photos

1,850,909 photos uploaded!

WunderBlogs® & News

Nearby

Air Quality

  Air Quality AQ Index Pollutant
Not available.

Snow Depth

Station Depth Elevation

Earthquake Activity

City Distance Mag. Time & Date
Minimum magnitude displayed is 2.5.

Coastal Water Temperatures

Place Temperature

Stations

Nearby Weather Stations

Station Location Temp. Windchill Dew Point Humidity Wind Precip. Elev Updated Type